sensor_id;sensor_type;location;lat;lon;timestamp;pressure;altitude;pressure_sealevel;temperature;humidity
45357;BME280;31092;51.924;21.448;2023-01-31T00:01:04;99003.63;;;1.13;100.00
45357;BME280;31092;51.924;21.448;2023-01-31T00:03:30;99025.28;;;1.28;100.00
45357;BME280;31092;51.924;21.448;2023-01-31T00:05:55;98941.31;;;0.78;100.00
45357;BME280;31092;51.924;21.448;2023-01-31T00:08:20;98947.75;;;0.85;100.00
45357;BME280;31092;51.924;21.448;2023-01-31T00:10:46;98930.00;;;0.76;100.00
45357;BME280;31092;51.924;21.448;2023-01-31T00:13:11;99031.59;;;1.36;100.00
45357;BME280;31092;51.924;21.448;2023-01-31T00:15:37;99027.56;;;1.32;100.00
45357;BME280;31092;51.924;21.448;2023-01-31T00:18:02;99044.72;;;1.38;100.00
45357;BME280;31092;51.924;21.448;2023-01-31T00:20:32;99021.53;;;1.30;100.00
45357;BME280;31092;51.924;21.448;2023-01-31T00:22:58;99044.34;;;1.42;100.00
45357;BME280;31092;51.924;21.448;2023-01-31T00:25:23;98978.91;;;1.03;100.00
45357;BME280;31092;51.924;21.448;2023-01-31T00:27:48;98951.81;;;0.89;100.00
45357;BME280;31092;51.924;21.448;2023-01-31T00:30:14;98957.53;;;0.94;100.00
45357;BME280;31092;51.924;21.448;2023-01-31T00:32:40;99037.06;;;1.44;100.00
45357;BME280;31092;51.924;21.448;2023-01-31T00:35:05;98955.47;;;0.98;100.00
45357;BME280;31092;51.924;21.448;2023-01-31T00:37:31;99013.16;;;1.35;100.00
45357;BME280;31092;51.924;21.448;2023-01-31T00:39:56;98977.69;;;1.07;100.00
45357;BME280;31092;51.924;21.448;2023-01-31T00:42:22;98965.06;;;0.99;100.00
45357;BME280;31092;51.924;21.448;2023-01-31T00:44:47;99055.66;;;1.54;100.00
45357;BME280;31092;51.924;21.448;2023-01-31T00:47:13;99062.63;;;1.55;100.00
45357;BME280;31092;51.924;21.448;2023-01-31T00:49:38;99009.25;;;1.29;100.00
45357;BME280;31092;51.924;21.448;2023-01-31T00:52:04;99033.00;;;1.40;100.00
45357;BME280;31092;51.924;21.448;2023-01-31T00:54:30;98982.84;;;1.08;100.00
45357;BME280;31092;51.924;21.448;2023-01-31T00:56:55;99065.44;;;1.63;100.00
45357;BME280;31092;51.924;21.448;2023-01-31T00:59:21;99039.97;;;1.41;100.00
45357;BME280;31092;51.924;21.448;2023-01-31T01:01:46;98966.31;;;0.95;100.00
45357;BME280;31092;51.924;21.448;2023-01-31T01:04:12;99042.38;;;1.44;100.00
45357;BME280;31092;51.924;21.448;2023-01-31T01:06:38;98992.91;;;1.14;100.00
45357;BME280;31092;51.924;21.448;2023-01-31T01:09:06;98974.16;;;1.06;100.00
45357;BME280;31092;51.924;21.448;2023-01-31T01:11:32;98985.34;;;1.10;100.00
45357;BME280;31092;51.924;21.448;2023-01-31T01:13:58;98974.72;;;1.00;100.00
45357;BME280;31092;51.924;21.448;2023-01-31T01:16:37;99088.94;;;1.68;100.00
45357;BME280;31092;51.924;21.448;2023-01-31T01:19:04;98980.22;;;1.18;100.00
45357;BME280;31092;51.924;21.448;2023-01-31T01:21:30;98987.03;;;1.20;100.00
45357;BME280;31092;51.924;21.448;2023-01-31T01:23:58;98975.16;;;1.15;100.00
45357;BME280;31092;51.924;21.448;2023-01-31T01:26:28;98975.44;;;1.12;100.00
45357;BME280;31092;51.924;21.448;2023-01-31T01:28:54;98983.41;;;1.12;100.00
45357;BME280;31092;51.924;21.448;2023-01-31T01:31:21;99076.91;;;1.64;100.00
45357;BME280;31092;51.924;21.448;2023-01-31T01:33:48;98992.22;;;1.22;100.00
45357;BME280;31092;51.924;21.448;2023-01-31T01:36:16;98995.44;;;1.26;100.00
45357;BME280;31092;51.924;21.448;2023-01-31T01:38:44;99001.72;;;1.25;100.00
45357;BME280;31092;51.924;21.448;2023-01-31T01:41:11;99003.94;;;1.29;100.00
45357;BME280;31092;51.924;21.448;2023-01-31T01:43:55;99092.00;;;1.83;100.00
45357;BME280;31092;51.924;21.448;2023-01-31T01:46:27;99073.00;;;1.68;100.00
45357;BME280;31092;51.924;21.448;2023-01-31T01:48:58;99005.31;;;1.24;100.00
45357;BME280;31092;51.924;21.448;2023-01-31T01:51:25;98996.81;;;1.20;100.00
45357;BME280;31092;51.924;21.448;2023-01-31T01:53:54;98997.38;;;1.24;100.00
45357;BME280;31092;51.924;21.448;2023-01-31T01:56:25;98996.69;;;1.22;100.00
45357;BME280;31092;51.924;21.448;2023-01-31T01:59:00;99100.66;;;1.85;100.00
45357;BME280;31092;51.924;21.448;2023-01-31T02:01:29;99050.63;;;1.51;100.00
45357;BME280;31092;51.924;21.448;2023-01-31T02:03:57;99006.31;;;1.23;100.00
45357;BME280;31092;51.924;21.448;2023-01-31T02:06:23;99116.03;;;1.91;100.00
45357;BME280;31092;51.924;21.448;2023-01-31T02:08:49;99026.72;;;1.41;100.00
45357;BME280;31092;51.924;21.448;2023-01-31T02:13:45;99139.25;;;1.99;100.00
45357;BME280;31092;51.924;21.448;2023-01-31T02:16:11;99134.22;;;1.96;100.00
45357;BME280;31092;51.924;21.448;2023-01-31T02:18:37;99053.44;;;1.50;100.00
45357;BME280;31092;51.924;21.448;2023-01-31T02:23:56;99159.41;;;2.11;100.00
45357;BME280;31092;51.924;21.448;2023-01-31T02:43:25;99170.03;;;2.11;100.00
45357;BME280;31092;51.924;21.448;2023-01-31T02:46:10;99089.31;;;1.54;100.00
45357;BME280;31092;51.924;21.448;2023-01-31T02:49:03;99178.84;;;2.11;100.00
45357;BME280;31092;51.924;21.448;2023-01-31T02:51:36;99145.25;;;1.91;100.00
45357;BME280;31092;51.924;21.448;2023-01-31T02:54:13;99088.50;;;1.53;100.00
45357;BME280;31092;51.924;21.448;2023-01-31T02:56:40;99094.63;;;1.54;100.00
45357;BME280;31092;51.924;21.448;2023-01-31T02:59:34;99182.75;;;2.07;100.00
45357;BME280;31092;51.924;21.448;2023-01-31T03:02:01;99134.03;;;1.68;100.00
45357;BME280;31092;51.924;21.448;2023-01-31T03:04:31;99145.91;;;1.74;100.00
45357;BME280;31092;51.924;21.448;2023-01-31T03:06:59;99213.38;;;2.11;100.00
45357;BME280;31092;51.924;21.448;2023-01-31T03:09:33;99200.06;;;2.02;100.00
45357;BME280;31092;51.924;21.448;2023-01-31T03:12:23;99230.28;;;2.10;100.00
45357;BME280;31092;51.924;21.448;2023-01-31T03:14:56;99225.66;;;2.12;100.00
45357;BME280;31092;51.924;21.448;2023-01-31T03:18:14;99232.25;;;2.18;100.00
45357;BME280;31092;51.924;21.448;2023-01-31T03:20:51;99203.44;;;2.04;100.00
45357;BME280;31092;51.924;21.448;2023-01-31T03:23:20;99157.38;;;1.74;100.00
45357;BME280;31092;51.924;21.448;2023-01-31T03:25:48;99208.03;;;2.02;100.00
45357;BME280;31092;51.924;21.448;2023-01-31T03:28:17;99229.03;;;2.14;100.00
45357;BME280;31092;51.924;21.448;2023-01-31T03:30:52;99148.69;;;1.62;100.00
45357;BME280;31092;51.924;21.448;2023-01-31T03:33:31;99155.41;;;1.66;100.00
45357;BME280;31092;51.924;21.448;2023-01-31T03:38:57;99258.69;;;2.29;100.00
45357;BME280;31092;51.924;21.448;2023-01-31T03:41:42;99164.66;;;1.72;100.00
45357;BME280;31092;51.924;21.448;2023-01-31T03:44:20;99159.19;;;1.64;100.00
45357;BME280;31092;51.924;21.448;2023-01-31T03:46:54;99258.13;;;2.26;100.00
45357;BME280;31092;51.924;21.448;2023-01-31T03:49:25;99118.63;;;1.42;100.00
45357;BME280;31092;51.924;21.448;2023-01-31T03:51:57;99190.25;;;1.83;100.00
45357;BME280;31092;51.924;21.448;2023-01-31T03:54:27;99248.03;;;2.10;100.00
45357;BME280;31092;51.924;21.448;2023-01-31T03:57:02;99230.28;;;2.10;100.00
45357;BME280;31092;51.924;21.448;2023-01-31T03:59:33;99222.84;;;2.04;100.00
45357;BME280;31092;51.924;21.448;2023-01-31T04:02:01;99250.97;;;2.16;100.00
45357;BME280;31092;51.924;21.448;2023-01-31T04:04:35;99172.72;;;1.61;100.00
45357;BME280;31092;51.924;21.448;2023-01-31T04:07:01;99204.50;;;1.82;100.00
45357;BME280;31092;51.924;21.448;2023-01-31T04:09:27;99276.16;;;2.22;100.00
45357;BME280;31092;51.924;21.448;2023-01-31T04:11:53;99202.22;;;1.77;100.00
45357;BME280;31092;51.924;21.448;2023-01-31T04:14:18;99199.31;;;1.80;100.00
45357;BME280;31092;51.924;21.448;2023-01-31T04:16:44;99298.03;;;2.35;100.00
45357;BME280;31092;51.924;21.448;2023-01-31T04:19:10;99282.88;;;2.26;100.00
45357;BME280;31092;51.924;21.448;2023-01-31T04:21:35;99297.00;;;2.27;100.00
45357;BME280;31092;51.924;21.448;2023-01-31T04:24:01;99298.13;;;2.34;100.00
45357;BME280;31092;51.924;21.448;2023-01-31T04:26:26;99292.81;;;2.24;100.00
45357;BME280;31092;51.924;21.448;2023-01-31T04:28:52;99292.66;;;2.26;100.00
45357;BME280;31092;51.924;21.448;2023-01-31T04:31:17;99237.19;;;1.92;100.00
45357;BME280;31092;51.924;21.448;2023-01-31T04:33:43;99186.09;;;1.59;100.00
45357;BME280;31092;51.924;21.448;2023-01-31T04:36:09;99292.78;;;2.14;100.00
45357;BME280;31092;51.924;21.448;2023-01-31T04:38:34;99231.16;;;1.80;100.00
45357;BME280;31092;51.924;21.448;2023-01-31T04:41:00;99296.44;;;2.23;100.00
45357;BME280;31092;51.924;21.448;2023-01-31T04:43:25;99247.81;;;1.92;100.00
45357;BME280;31092;51.924;21.448;2023-01-31T04:45:51;99239.03;;;1.82;100.00
45357;BME280;31092;51.924;21.448;2023-01-31T04:48:16;99208.91;;;1.62;100.00
45357;BME280;31092;51.924;21.448;2023-01-31T04:50:41;99244.72;;;1.77;100.00
45357;BME280;31092;51.924;21.448;2023-01-31T04:53:07;99248.50;;;1.84;100.00
45357;BME280;31092;51.924;21.448;2023-01-31T04:55:33;99296.53;;;2.12;100.00
45357;BME280;31092;51.924;21.448;2023-01-31T04:57:59;99283.09;;;2.04;100.00
45357;BME280;31092;51.924;21.448;2023-01-31T05:00:24;99330.19;;;2.32;100.00
45357;BME280;31092;51.924;21.448;2023-01-31T05:02:50;99216.28;;;1.58;100.00
45357;BME280;31092;51.924;21.448;2023-01-31T05:05:16;99265.84;;;1.79;100.00
45357;BME280;31092;51.924;21.448;2023-01-31T05:07:43;99334.31;;;2.15;100.00
45357;BME280;31092;51.924;21.448;2023-01-31T05:10:09;99298.28;;;1.92;100.00
45357;BME280;31092;51.924;21.448;2023-01-31T05:12:34;99343.38;;;2.13;100.00
45357;BME280;31092;51.924;21.448;2023-01-31T05:15:00;99341.41;;;2.05;100.00
45357;BME280;31092;51.924;21.448;2023-01-31T05:17:26;99368.53;;;2.09;100.00
45357;BME280;31092;51.924;21.448;2023-01-31T05:19:55;99378.94;;;2.22;100.00
45357;BME280;31092;51.924;21.448;2023-01-31T05:22:21;99365.66;;;2.22;100.00
45357;BME280;31092;51.924;21.448;2023-01-31T05:24:47;99310.28;;;1.86;100.00
45357;BME280;31092;51.924;21.448;2023-01-31T05:27:14;99305.50;;;1.80;100.00
45357;BME280;31092;51.924;21.448;2023-01-31T05:29:40;99353.56;;;2.08;100.00
45357;BME280;31092;51.924;21.448;2023-01-31T05:32:06;99304.09;;;1.76;100.00
45357;BME280;31092;51.924;21.448;2023-01-31T05:34:32;99335.75;;;1.89;100.00
45357;BME280;31092;51.924;21.448;2023-01-31T05:36:59;99296.63;;;1.60;100.00
45357;BME280;31092;51.924;21.448;2023-01-31T05:39:26;99389.66;;;2.10;100.00
45357;BME280;31092;51.924;21.448;2023-01-31T05:41:51;99316.22;;;1.69;100.00
45357;BME280;31092;51.924;21.448;2023-01-31T05:44:17;99382.22;;;2.04;100.00
45357;BME280;31092;51.924;21.448;2023-01-31T05:46:43;99317.84;;;1.60;100.00
45357;BME280;31092;51.924;21.448;2023-01-31T05:49:09;99401.81;;;2.13;100.00
45357;BME280;31092;51.924;21.448;2023-01-31T05:51:35;99353.19;;;1.82;100.00
45357;BME280;31092;51.924;21.448;2023-01-31T05:54:00;99382.03;;;1.96;100.00
45357;BME280;31092;51.924;21.448;2023-01-31T05:56:26;99345.72;;;1.76;100.00
45357;BME280;31092;51.924;21.448;2023-01-31T05:58:51;99354.22;;;1.70;100.00
45357;BME280;31092;51.924;21.448;2023-01-31T06:01:18;99378.75;;;1.83;100.00
45357;BME280;31092;51.924;21.448;2023-01-31T06:03:44;99421.78;;;2.07;100.00
45357;BME280;31092;51.924;21.448;2023-01-31T06:06:10;99365.66;;;1.70;100.00
45357;BME280;31092;51.924;21.448;2023-01-31T06:08:35;99377.34;;;1.79;100.00
45357;BME280;31092;51.924;21.448;2023-01-31T06:11:01;99368.31;;;1.70;100.00
45357;BME280;31092;51.924;21.448;2023-01-31T06:13:32;99465.22;;;2.27;100.00
45357;BME280;31092;51.924;21.448;2023-01-31T06:15:57;99447.28;;;2.20;100.00
45357;BME280;31092;51.924;21.448;2023-01-31T06:18:23;99472.00;;;2.31;100.00
45357;BME280;31092;51.924;21.448;2023-01-31T06:20:49;99381.59;;;1.70;100.00
45357;BME280;31092;51.924;21.448;2023-01-31T06:23:15;99381.84;;;1.67;100.00
45357;BME280;31092;51.924;21.448;2023-01-31T06:25:41;99443.31;;;2.04;100.00
45357;BME280;31092;51.924;21.448;2023-01-31T06:28:06;99419.41;;;1.83;100.00
45357;BME280;31092;51.924;21.448;2023-01-31T06:30:32;99481.47;;;2.24;100.00
45357;BME280;31092;51.924;21.448;2023-01-31T06:33:01;99476.66;;;2.18;100.00
45357;BME280;31092;51.924;21.448;2023-01-31T06:35:27;99464.28;;;2.07;100.00
45357;BME280;31092;51.924;21.448;2023-01-31T06:37:54;99481.66;;;2.11;100.00
45357;BME280;31092;51.924;21.448;2023-01-31T06:40:19;99491.56;;;2.09;100.00
45357;BME280;31092;51.924;21.448;2023-01-31T06:42:45;99503.34;;;2.16;100.00
45357;BME280;31092;51.924;21.448;2023-01-31T06:45:11;99505.31;;;2.14;100.00
45357;BME280;31092;51.924;21.448;2023-01-31T06:47:36;99459.09;;;1.85;100.00
45357;BME280;31092;51.924;21.448;2023-01-31T06:50:02;99461.16;;;1.81;100.00
45357;BME280;31092;51.924;21.448;2023-01-31T06:52:28;99430.03;;;1.62;100.00
45357;BME280;31092;51.924;21.448;2023-01-31T06:54:53;99454.44;;;1.77;100.00
45357;BME280;31092;51.924;21.448;2023-01-31T06:57:18;99518.25;;;2.08;100.00
45357;BME280;31092;51.924;21.448;2023-01-31T06:59:44;99515.84;;;2.05;100.00
45357;BME280;31092;51.924;21.448;2023-01-31T07:02:10;99472.66;;;1.82;100.00
45357;BME280;31092;51.924;21.448;2023-01-31T07:04:35;99472.00;;;1.68;100.00
45357;BME280;31092;51.924;21.448;2023-01-31T07:07:01;99536.00;;;2.07;100.00
45357;BME280;31092;51.924;21.448;2023-01-31T07:09:26;99563.69;;;2.26;100.00
45357;BME280;31092;51.924;21.448;2023-01-31T07:11:52;99571.25;;;2.30;100.00
45357;BME280;31092;51.924;21.448;2023-01-31T07:14:17;99557.47;;;2.15;100.00
45357;BME280;31092;51.924;21.448;2023-01-31T07:16:43;99570.34;;;2.20;100.00
45357;BME280;31092;51.924;21.448;2023-01-31T07:19:08;99548.91;;;2.12;100.00
45357;BME280;31092;51.924;21.448;2023-01-31T07:21:33;99578.53;;;2.28;100.00
45357;BME280;31092;51.924;21.448;2023-01-31T07:24:02;99578.53;;;2.28;100.00
45357;BME280;31092;51.924;21.448;2023-01-31T07:26:28;99576.97;;;2.26;100.00
45357;BME280;31092;51.924;21.448;2023-01-31T07:28:53;99473.91;;;1.66;100.00
45357;BME280;31092;51.924;21.448;2023-01-31T07:31:19;99526.16;;;1.98;100.00
45357;BME280;31092;51.924;21.448;2023-01-31T07:33:45;99523.50;;;1.98;100.00
45357;BME280;31092;51.924;21.448;2023-01-31T07:36:14;99603.56;;;2.47;100.00
45357;BME280;31092;51.924;21.448;2023-01-31T07:38:41;99558.03;;;2.19;100.00
45357;BME280;31092;51.924;21.448;2023-01-31T07:41:08;99518.06;;;2.00;100.00
45357;BME280;31092;51.924;21.448;2023-01-31T07:43:34;99599.16;;;2.57;100.00
45357;BME280;31092;51.924;21.448;2023-01-31T07:46:01;99593.09;;;2.55;100.00
45357;BME280;31092;51.924;21.448;2023-01-31T07:48:27;99589.16;;;2.49;100.00
45357;BME280;31092;51.924;21.448;2023-01-31T07:51:00;99603.03;;;2.53;100.00
45357;BME280;31092;51.924;21.448;2023-01-31T07:53:27;99522.72;;;2.07;100.00
45357;BME280;31092;51.924;21.448;2023-01-31T07:55:53;99619.63;;;2.66;100.00
45357;BME280;31092;51.924;21.448;2023-01-31T07:58:19;99505.28;;;1.94;100.00
45357;BME280;31092;51.924;21.448;2023-01-31T08:00:44;99608.34;;;2.53;100.00
45357;BME280;31092;51.924;21.448;2023-01-31T08:03:29;99620.16;;;2.60;100.00
45357;BME280;31092;51.924;21.448;2023-01-31T08:06:08;99578.97;;;2.33;100.00
45357;BME280;31092;51.924;21.448;2023-01-31T08:08:35;99544.56;;;2.11;100.00
45357;BME280;31092;51.924;21.448;2023-01-31T08:11:01;99598.88;;;2.39;100.00
45357;BME280;31092;51.924;21.448;2023-01-31T08:13:26;99519.56;;;1.92;100.00
45357;BME280;31092;51.924;21.448;2023-01-31T08:15:52;99629.34;;;2.56;100.00
45357;BME280;31092;51.924;21.448;2023-01-31T08:18:18;99543.06;;;1.97;100.00
45357;BME280;31092;51.924;21.448;2023-01-31T08:20:44;99563.53;;;2.06;100.00
45357;BME280;31092;51.924;21.448;2023-01-31T08:23:09;99639.94;;;2.46;100.00
45357;BME280;31092;51.924;21.448;2023-01-31T08:25:35;99648.50;;;2.50;100.00
45357;BME280;31092;51.924;21.448;2023-01-31T08:28:00;99556.44;;;1.96;100.00
45357;BME280;31092;51.924;21.448;2023-01-31T08:30:27;99591.59;;;2.20;100.00
45357;BME280;31092;51.924;21.448;2023-01-31T08:32:52;99667.88;;;2.61;100.00
45357;BME280;31092;51.924;21.448;2023-01-31T08:35:18;99597.88;;;2.19;100.00
45357;BME280;31092;51.924;21.448;2023-01-31T08:37:43;99628.88;;;2.30;100.00
45357;BME280;31092;51.924;21.448;2023-01-31T08:40:09;99669.53;;;2.62;100.00
45357;BME280;31092;51.924;21.448;2023-01-31T08:42:34;99682.72;;;2.64;100.00
45357;BME280;31092;51.924;21.448;2023-01-31T08:45:00;99653.06;;;2.48;100.00
45357;BME280;31092;51.924;21.448;2023-01-31T08:47:25;99679.22;;;2.63;100.00
45357;BME280;31092;51.924;21.448;2023-01-31T08:49:51;99608.78;;;2.16;100.00
45357;BME280;31092;51.924;21.448;2023-01-31T08:52:16;99662.13;;;2.45;100.00
45357;BME280;31092;51.924;21.448;2023-01-31T08:54:42;99707.56;;;2.74;100.00
45357;BME280;31092;51.924;21.448;2023-01-31T08:57:07;99675.00;;;2.61;100.00
45357;BME280;31092;51.924;21.448;2023-01-31T08:59:32;99657.69;;;2.46;100.00
45357;BME280;31092;51.924;21.448;2023-01-31T09:01:58;99602.28;;;2.09;100.00
45357;BME280;31092;51.924;21.448;2023-01-31T09:04:23;99711.44;;;2.70;100.00
45357;BME280;31092;51.924;21.448;2023-01-31T09:06:49;99636.47;;;2.34;100.00
45357;BME280;31092;51.924;21.448;2023-01-31T09:09:14;99711.28;;;2.83;100.00
45357;BME280;31092;51.924;21.448;2023-01-31T09:11:39;99703.59;;;2.69;100.00
45357;BME280;31092;51.924;21.448;2023-01-31T09:14:05;99724.22;;;2.76;100.00
45357;BME280;31092;51.924;21.448;2023-01-31T09:16:31;99724.56;;;2.83;100.00
45357;BME280;31092;51.924;21.448;2023-01-31T09:18:56;99720.59;;;2.77;100.00
45357;BME280;31092;51.924;21.448;2023-01-31T09:21:22;99703.47;;;2.70;100.00
45357;BME280;31092;51.924;21.448;2023-01-31T09:23:56;99654.44;;;2.42;100.00
45357;BME280;31092;51.924;21.448;2023-01-31T09:26:22;99719.00;;;2.86;100.00
45357;BME280;31092;51.924;21.448;2023-01-31T09:28:47;99723.22;;;2.88;100.00
45357;BME280;31092;51.924;21.448;2023-01-31T09:31:18;99732.28;;;2.86;100.00
45357;BME280;31092;51.924;21.448;2023-01-31T09:33:44;99709.66;;;2.71;100.00
45357;BME280;31092;51.924;21.448;2023-01-31T09:36:12;99655.66;;;2.38;100.00
45357;BME280;31092;51.924;21.448;2023-01-31T09:38:38;99717.50;;;2.72;100.00
45357;BME280;31092;51.924;21.448;2023-01-31T09:41:32;99739.03;;;2.90;100.00
45357;BME280;31092;51.924;21.448;2023-01-31T09:44:03;99735.06;;;2.84;100.00
45357;BME280;31092;51.924;21.448;2023-01-31T09:46:31;99740.00;;;2.89;100.00
45357;BME280;31092;51.924;21.448;2023-01-31T09:49:02;99657.22;;;2.40;100.00
45357;BME280;31092;51.924;21.448;2023-01-31T09:51:30;99740.59;;;2.93;100.00
45357;BME280;31092;51.924;21.448;2023-01-31T09:53:56;99643.72;;;2.32;100.00
45357;BME280;31092;51.924;21.448;2023-01-31T09:56:38;99716.84;;;2.80;100.00
45357;BME280;31092;51.924;21.448;2023-01-31T09:59:20;99735.13;;;2.94;100.00
45357;BME280;31092;51.924;21.448;2023-01-31T10:07:12;99714.09;;;2.70;100.00
45357;BME280;31092;51.924;21.448;2023-01-31T10:09:41;99754.00;;;2.91;100.00
45357;BME280;31092;51.924;21.448;2023-01-31T10:14:35;99761.41;;;2.87;100.00
45357;BME280;31092;51.924;21.448;2023-01-31T10:17:25;99690.88;;;2.51;100.00
45357;BME280;31092;51.924;21.448;2023-01-31T10:19:56;99766.47;;;2.91;100.00
45357;BME280;31092;51.924;21.448;2023-01-31T10:22:45;99763.56;;;2.94;100.00
45357;BME280;31092;51.924;21.448;2023-01-31T10:25:25;99756.16;;;2.97;100.00
45357;BME280;31092;51.924;21.448;2023-01-31T10:28:17;99656.22;;;2.42;100.00
45357;BME280;31092;51.924;21.448;2023-01-31T10:30:55;99731.31;;;2.87;100.00
45357;BME280;31092;51.924;21.448;2023-01-31T10:33:29;99749.88;;;2.98;100.00
45357;BME280;31092;51.924;21.448;2023-01-31T10:36:02;99749.41;;;2.93;100.00
45357;BME280;31092;51.924;21.448;2023-01-31T10:46:53;99681.31;;;2.60;100.00
45357;BME280;31092;51.924;21.448;2023-01-31T10:49:22;99613.31;;;2.25;100.00
45357;BME280;31092;51.924;21.448;2023-01-31T10:57:04;99678.38;;;2.84;100.00
45357;BME280;31092;51.924;21.448;2023-01-31T10:59:33;99636.38;;;2.57;100.00
45357;BME280;31092;51.924;21.448;2023-01-31T11:02:01;99663.00;;;2.67;100.00
45357;BME280;31092;51.924;21.448;2023-01-31T11:04:30;99676.19;;;2.68;100.00
45357;BME280;31092;51.924;21.448;2023-01-31T11:06:58;99649.06;;;2.53;100.00
45357;BME280;31092;51.924;21.448;2023-01-31T11:09:28;99745.19;;;3.11;100.00
45357;BME280;31092;51.924;21.448;2023-01-31T11:11:59;99691.41;;;2.87;100.00
45357;BME280;31092;51.924;21.448;2023-01-31T11:14:25;99672.28;;;2.72;100.00
45357;BME280;31092;51.924;21.448;2023-01-31T11:19:32;99624.41;;;2.51;100.00
45357;BME280;31092;51.924;21.448;2023-01-31T11:21:59;99727.56;;;3.10;100.00
45357;BME280;31092;51.924;21.448;2023-01-31T11:24:28;99687.50;;;2.91;100.00
45357;BME280;31092;51.924;21.448;2023-01-31T11:26:58;99725.47;;;3.14;100.00
45357;BME280;31092;51.924;21.448;2023-01-31T11:29:34;99728.78;;;3.06;100.00
45357;BME280;31092;51.924;21.448;2023-01-31T11:32:11;99634.47;;;2.48;100.00
45357;BME280;31092;51.924;21.448;2023-01-31T11:34:54;99664.56;;;2.69;100.00
45357;BME280;31092;51.924;21.448;2023-01-31T11:37:20;99638.44;;;2.53;100.00
45357;BME280;31092;51.924;21.448;2023-01-31T11:39:59;99734.31;;;3.15;100.00
45357;BME280;31092;51.924;21.448;2023-01-31T11:42:26;99686.09;;;2.87;100.00
45357;BME280;31092;51.924;21.448;2023-01-31T11:45:00;99653.09;;;2.69;100.00
45357;BME280;31092;51.924;21.448;2023-01-31T11:47:47;99717.88;;;3.09;100.00
45357;BME280;31092;51.924;21.448;2023-01-31T11:55:39;99741.38;;;3.25;100.00
45357;BME280;31092;51.924;21.448;2023-01-31T11:58:16;99754.28;;;3.30;100.00
45357;BME280;31092;51.924;21.448;2023-01-31T12:00:58;99643.44;;;2.68;100.00
45357;BME280;31092;51.924;21.448;2023-01-31T12:03:25;99756.34;;;3.26;100.00
45357;BME280;31092;51.924;21.448;2023-01-31T12:06:04;99733.47;;;3.14;100.00
45357;BME280;31092;51.924;21.448;2023-01-31T12:08:36;99740.94;;;3.20;100.00
45357;BME280;31092;51.924;21.448;2023-01-31T12:13:50;99749.75;;;3.21;100.00
45357;BME280;31092;51.924;21.448;2023-01-31T12:16:19;99649.13;;;2.63;100.00
45357;BME280;31092;51.924;21.448;2023-01-31T12:26:53;99739.47;;;3.16;100.00
45357;BME280;31092;51.924;21.448;2023-01-31T12:38:06;99657.69;;;2.67;100.00
45357;BME280;31092;51.924;21.448;2023-01-31T12:40:49;99733.31;;;3.16;100.00
45357;BME280;31092;51.924;21.448;2023-01-31T12:51:17;99722.81;;;3.14;100.00
45357;BME280;31092;51.924;21.448;2023-01-31T12:59:33;99701.13;;;2.98;100.00
45357;BME280;31092;51.924;21.448;2023-01-31T13:04:39;99720.16;;;3.14;100.00
45357;BME280;31092;51.924;21.448;2023-01-31T13:09:45;99671.63;;;2.80;100.00
45357;BME280;31092;51.924;21.448;2023-01-31T13:12:18;99638.63;;;2.61;100.00
45357;BME280;31092;51.924;21.448;2023-01-31T13:14:54;99724.06;;;3.10;100.00
45357;BME280;31092;51.924;21.448;2023-01-31T13:17:25;99726.00;;;3.08;100.00
45357;BME280;31092;51.924;21.448;2023-01-31T13:20:00;99702.63;;;2.91;100.00
45357;BME280;31092;51.924;21.448;2023-01-31T13:22:38;99623.75;;;2.38;100.00
45357;BME280;31092;51.924;21.448;2023-01-31T13:25:23;99637.25;;;2.46;100.00
45357;BME280;31092;51.924;21.448;2023-01-31T13:27:57;99726.19;;;2.95;100.00
45357;BME280;31092;51.924;21.448;2023-01-31T13:36:10;99720.81;;;2.85;100.00
45357;BME280;31092;51.924;21.448;2023-01-31T13:38:44;99712.75;;;2.76;100.00
45357;BME280;31092;51.924;21.448;2023-01-31T13:43:47;99709.69;;;2.80;100.00
45357;BME280;31092;51.924;21.448;2023-01-31T13:46:15;99706.72;;;2.74;100.00
45357;BME280;31092;51.924;21.448;2023-01-31T13:48:55;99703.84;;;2.66;100.00
45357;BME280;31092;51.924;21.448;2023-01-31T13:51:22;99722.31;;;2.78;100.00
45357;BME280;31092;51.924;21.448;2023-01-31T13:53:55;99672.19;;;2.42;100.00
45357;BME280;31092;51.924;21.448;2023-01-31T13:56:28;99714.50;;;2.66;100.00
45357;BME280;31092;51.924;21.448;2023-01-31T13:58:55;99702.28;;;2.63;100.00
45357;BME280;31092;51.924;21.448;2023-01-31T14:01:23;99652.16;;;2.37;100.00
45357;BME280;31092;51.924;21.448;2023-01-31T14:09:26;99732.34;;;2.75;100.00
45357;BME280;31092;51.924;21.448;2023-01-31T14:11:58;99655.00;;;2.25;100.00
45357;BME280;31092;51.924;21.448;2023-01-31T14:14:50;99717.22;;;2.54;100.00
45357;BME280;31092;51.924;21.448;2023-01-31T14:44:16;99642.94;;;1.77;100.00
45357;BME280;31092;51.924;21.448;2023-01-31T14:57:47;99687.19;;;1.99;100.00
45357;BME280;31092;51.924;21.448;2023-01-31T15:00:22;99731.47;;;2.21;100.00
45357;BME280;31092;51.924;21.448;2023-01-31T15:13:52;99732.19;;;2.12;100.00
45357;BME280;31092;51.924;21.448;2023-01-31T15:16:26;99736.06;;;2.08;100.00
45357;BME280;31092;51.924;21.448;2023-01-31T15:21:56;99715.69;;;1.97;100.00
45357;BME280;31092;51.924;21.448;2023-01-31T15:24:37;99630.81;;;1.52;100.00
45357;BME280;31092;51.924;21.448;2023-01-31T15:27:10;99719.94;;;2.00;100.00
45357;BME280;31092;51.924;21.448;2023-01-31T15:29:53;99680.09;;;1.77;100.00
45357;BME280;31092;51.924;21.448;2023-01-31T15:32:26;99703.97;;;1.88;100.00
45357;BME280;31092;51.924;21.448;2023-01-31T15:35:05;99634.81;;;1.47;100.00
45357;BME280;31092;51.924;21.448;2023-01-31T15:37:33;99622.63;;;1.33;100.00
45357;BME280;31092;51.924;21.448;2023-01-31T15:40:04;99695.81;;;1.69;100.00